Time;durP1;ratioP1;P1;durP2;ratioP2;P2;SDS_P1;SDS_P2;PMS_P1;PMS_P2;Temp;Humidity;BMP_temperature;BMP_pressure;BME280_temperature;BME280_humidity;BME280_pressure;Samples;Min_cycle;Max_cycle;Signal;HPM_P1;HPM_P2
2023/08/05 00:00:58;;;;;;;2.80;1.92;;;17.10;99.90;;;17.45;100.00;101039.22;5182123;28;20515;-50
2023/08/05 00:03:31;;;;;;;2.38;1.75;;;17.10;99.90;;;17.44;100.00;101033.06;5201413;28;20525;-50
2023/08/05 00:06:05;;;;;;;3.72;2.00;;;17.10;99.90;;;17.44;100.00;101040.97;5192808;28;20049;-50
2023/08/05 00:08:37;;;;;;;2.60;1.80;;;17.10;99.90;;;17.45;100.00;101045.34;5201172;28;20037;-49
2023/08/05 00:11:09;;;;;;;2.90;1.95;;;17.10;99.90;;;17.47;100.00;101038.34;5182687;28;20050;-50
2023/08/05 00:13:41;;;;;;;2.38;1.83;;;17.10;99.90;;;17.50;100.00;101040.16;5181094;28;20037;-49
2023/08/05 00:16:14;;;;;;;2.60;1.88;;;17.20;99.90;;;17.50;100.00;101035.75;5180983;28;20049;-49
2023/08/05 00:18:46;;;;;;;3.42;2.13;;;17.20;99.90;;;17.50;100.00;101042.78;5181008;28;20049;-49
2023/08/05 00:21:20;;;;;;;2.70;2.10;;;17.20;99.90;;;17.48;100.00;101034.88;5184168;28;20050;-48
2023/08/05 00:23:52;;;;;;;3.83;2.03;;;17.20;99.90;;;17.43;100.00;101041.84;5193126;28;20069;-49
2023/08/05 00:26:25;;;;;;;2.90;2.10;;;17.10;99.90;;;17.38;100.00;101037.38;5193140;28;20045;-49
2023/08/05 00:28:57;;;;;;;3.17;2.05;;;17.10;99.90;;;17.32;100.00;101038.19;5200554;28;20159;-49
2023/08/05 00:31:29;;;;;;;3.22;2.00;;;17.00;99.90;;;17.27;100.00;101026.72;5196107;28;20406;-49
2023/08/05 00:34:03;;;;;;;3.70;1.90;;;17.00;99.90;;;17.21;100.00;101031.91;5196793;28;20065;-48
2023/08/05 00:36:37;;;;;;;3.40;1.83;;;17.00;99.90;;;17.17;100.00;101035.38;5180057;28;20056;-49
2023/08/05 00:39:10;;;;;;;2.80;2.03;;;16.90;99.90;;;17.12;100.00;101029.19;5182599;28;20046;-48
2023/08/05 00:41:45;;;;;;;4.68;2.63;;;16.80;99.90;;;17.06;100.00;101029.97;5194047;28;20052;-49
2023/08/05 00:44:18;;;;;;;3.85;2.42;;;16.80;99.90;;;17.03;100.00;101033.47;5192868;28;20045;-48
2023/08/05 00:46:50;;;;;;;3.13;2.00;;;16.70;99.90;;;17.02;100.00;101028.19;5202215;28;20037;-49
2023/08/05 00:49:22;;;;;;;2.80;2.20;;;16.70;99.90;;;17.00;100.00;101028.16;5189071;28;20049;-49
2023/08/05 00:51:56;;;;;;;3.50;1.92;;;16.70;99.90;;;16.95;100.00;101011.44;5188784;28;20046;-49
2023/08/05 00:54:29;;;;;;;3.03;2.03;;;16.70;99.90;;;16.90;100.00;101020.16;5193257;28;20041;-48
2023/08/05 00:57:01;;;;;;;2.83;2.00;;;16.60;99.90;;;16.87;100.00;101015.72;5201885;28;20495;-49
2023/08/05 00:59:36;;;;;;;3.40;2.22;;;16.60;99.90;;;16.82;100.00;101017.38;5196842;28;20046;-48
2023/08/05 01:02:09;;;;;;;3.13;1.95;;;16.60;99.90;;;16.78;100.00;101012.97;5197768;28;20046;-50
2023/08/05 01:04:41;;;;;;;3.40;1.73;;;16.50;99.90;;;16.74;100.00;101011.16;5186543;28;20046;-49
2023/08/05 01:07:19;;;;;;;2.47;1.80;;;16.50;99.90;;;16.69;100.00;101007.53;5190661;28;20087;-50
2023/08/05 01:09:51;;;;;;;2.65;1.55;;;16.40;99.90;;;16.64;100.00;101025.03;5200543;28;20053;-49
2023/08/05 01:12:24;;;;;;;2.60;1.80;;;16.40;99.90;;;16.60;100.00;101023.22;5200513;28;20150;-50
2023/08/05 01:14:56;;;;;;;2.88;1.83;;;16.30;99.90;;;16.57;100.00;101021.44;5184698;28;20050;-48
2023/08/05 01:17:29;;;;;;;2.65;1.75;;;16.30;99.90;;;16.57;100.00;101018.81;5188183;28;20046;-49
2023/08/05 01:20:03;;;;;;;3.15;1.85;;;16.30;99.90;;;16.55;100.00;101020.50;5188572;28;20128;-49
2023/08/05 01:22:41;;;;;;;2.92;2.00;;;16.30;99.90;;;16.50;100.00;101019.56;5187273;28;20057;-48
2023/08/05 01:25:27;;;;;;;2.67;1.90;;;16.20;99.90;;;16.45;100.00;101011.63;5190536;28;20163;-50
2023/08/05 01:28:04;;;;;;;2.47;1.80;;;16.20;99.90;;;16.41;100.00;101017.69;5200088;28;20152;-48
2023/08/05 01:30:37;;;;;;;2.45;1.67;;;16.20;99.90;;;16.36;100.00;101027.25;5181533;28;20495;-49
2023/08/05 01:33:10;;;;;;;2.45;1.60;;;16.10;99.90;;;16.30;100.00;101021.91;5189695;28;20054;-49
2023/08/05 01:35:48;;;;;;;3.65;1.98;;;16.00;99.90;;;16.24;100.00;101013.94;5194750;28;20430;-49
2023/08/05 01:38:21;;;;;;;3.53;1.60;;;16.00;99.90;;;16.19;100.00;101012.97;5199259;28;20421;-49
2023/08/05 01:40:55;;;;;;;3.90;1.98;;;16.00;99.90;;;16.16;100.00;101026.06;5192851;28;20049;-50
2023/08/05 01:43:28;;;;;;;2.42;1.65;;;15.90;99.90;;;16.15;100.00;101027.81;5192097;28;20042;-50
2023/08/05 01:46:00;;;;;;;4.18;2.25;;;15.90;99.90;;;16.15;100.00;101029.56;5192761;28;20057;-48
2023/08/05 01:48:32;;;;;;;5.13;2.65;;;15.90;99.90;;;16.14;100.00;101030.41;5199542;28;20125;-49
2023/08/05 01:51:05;;;;;;;5.38;2.63;;;15.90;99.90;;;16.13;100.00;101036.53;5192481;28;20049;-49
2023/08/05 01:53:37;;;;;;;3.83;2.33;;;15.90;99.90;;;16.12;100.00;101021.63;5190822;28;20049;-49
2023/08/05 01:56:14;;;;;;;3.67;2.20;;;15.90;99.90;;;16.11;100.00;101023.38;5184610;28;20527;-49
2023/08/05 01:58:47;;;;;;;4.38;2.30;;;15.90;99.90;;;16.11;100.00;101026.00;5197531;28;20056;-50
2023/08/05 02:01:19;;;;;;;3.88;2.30;;;15.90;99.90;;;16.10;100.00;101025.97;5185789;28;20419;-49
2023/08/05 02:03:52;;;;;;;3.97;2.30;;;15.90;99.90;;;16.10;100.00;101018.06;5188804;28;20038;-49
2023/08/05 02:06:24;;;;;;;2.70;1.92;;;15.90;99.90;;;16.08;100.00;101028.56;5194920;28;20049;-49
2023/08/05 02:08:56;;;;;;;2.03;1.73;;;15.90;99.90;;;16.04;100.00;101036.38;5187862;28;20046;-48
2023/08/05 02:11:30;;;;;;;3.42;2.13;;;15.80;99.90;;;15.99;100.00;101021.44;5203121;28;20053;-48
2023/08/05 02:14:03;;;;;;;2.65;1.90;;;15.80;99.90;;;15.96;100.00;101018.75;5187348;28;20046;-48
2023/08/05 02:16:36;;;;;;;4.13;2.28;;;15.70;99.90;;;15.94;100.00;101022.22;5203293;28;20502;-49
2023/08/05 02:19:08;;;;;;;4.72;2.83;;;15.70;99.90;;;15.92;100.00;101021.31;5202995;28;20144;-50
2023/08/05 02:21:41;;;;;;;3.05;2.22;;;15.70;99.90;;;15.91;100.00;101015.16;5203288;28;20111;-49
2023/08/05 02:24:16;;;;;;;4.28;2.20;;;15.70;99.90;;;15.90;100.00;101017.75;5194066;28;20082;-48
2023/08/05 02:26:50;;;;;;;2.75;1.80;;;15.70;99.90;;;15.86;100.00;101014.22;5191009;28;20389;-50
2023/08/05 02:29:22;;;;;;;2.75;1.90;;;15.60;99.90;;;15.84;100.00;101015.00;5190981;28;20053;-49
2023/08/05 02:31:58;;;;;;;3.00;1.98;;;15.60;99.90;;;15.83;100.00;101008.00;5197930;28;20507;-48
2023/08/05 02:34:30;;;;;;;3.00;1.98;;;15.60;99.90;;;15.82;100.00;101000.97;5201415;28;20500;-49
2023/08/05 02:37:04;;;;;;;3.33;1.90;;;15.60;99.90;;;15.80;100.00;100998.31;5198880;28;20060;-49
2023/08/05 02:39:36;;;;;;;4.05;2.28;;;15.60;99.90;;;15.79;100.00;100991.31;5190652;28;20050;-49
2023/08/05 02:42:10;;;;;;;3.13;1.88;;;15.60;99.90;;;15.77;100.00;100984.22;5183156;28;20515;-50
2023/08/05 02:44:42;;;;;;;3.90;2.40;;;15.60;99.90;;;15.73;100.00;100984.19;5195044;28;20430;-49
2023/08/05 02:47:15;;;;;;;3.50;2.38;;;15.50;99.90;;;15.67;100.00;100976.22;5194697;28;20053;-49
2023/08/05 02:49:47;;;;;;;3.75;1.95;;;15.50;99.90;;;15.64;100.00;100972.63;5188752;28;20046;-50
2023/08/05 02:52:19;;;;;;;2.78;1.92;;;15.40;99.90;;;15.62;100.00;100974.34;5184147;28;20064;-49
2023/08/05 02:54:52;;;;;;;2.75;1.90;;;15.40;99.90;;;15.58;100.00;100989.13;5188329;28;20728;-49
2023/08/05 02:57:25;;;;;;;3.00;1.83;;;15.40;99.90;;;15.56;100.00;100989.97;5192061;28;20152;-48
2023/08/05 02:59:58;;;;;;;3.55;2.25;;;15.30;99.90;;;15.51;100.00;100989.88;5194753;28;20049;-49
2023/08/05 03:02:30;;;;;;;3.40;1.95;;;15.30;99.90;;;15.47;100.00;100986.34;5186453;28;20518;-48
2023/08/05 03:05:03;;;;;;;3.35;2.22;;;15.30;99.90;;;15.46;100.00;100994.19;5195005;28;20057;-49
2023/08/05 03:07:35;;;;;;;3.83;2.53;;;15.30;99.90;;;15.43;100.00;101000.25;5190333;28;20060;-48
2023/08/05 03:10:09;;;;;;;3.78;2.33;;;15.20;99.90;;;15.44;100.00;101001.16;5190209;28;20057;-49
2023/08/05 03:12:43;;;;;;;3.30;2.15;;;15.20;99.90;;;15.43;100.00;100999.38;5197657;28;20038;-48
2023/08/05 03:15:16;;;;;;;;;;;15.20;99.90;;;15.38;100.00;100994.03;5191626;28;20057;-49
2023/08/05 03:17:48;;;;;;;3.35;2.10;;;15.20;99.90;;;15.35;100.00;100991.38;5205040;28;19929;-48
2023/08/05 03:20:25;;;;;;;2.75;1.75;;;15.20;99.90;;;15.30;100.00;100986.88;5200204;28;20076;-49
2023/08/05 03:23:00;;;;;;;2.28;1.67;;;15.10;99.90;;;15.25;100.00;100983.28;5186850;28;20102;-49
2023/08/05 03:25:34;;;;;;;2.38;1.58;;;15.10;99.90;;;15.20;100.00;100983.22;5201387;28;20111;-49
2023/08/05 03:28:13;;;;;;;2.67;1.70;;;15.00;99.90;;;15.15;100.00;100982.25;5193982;28;20177;-49
2023/08/05 03:30:52;;;;;;;2.70;1.85;;;15.00;99.90;;;15.11;100.00;100985.66;5196103;28;20108;-49
2023/08/05 03:33:30;;;;;;;2.88;1.83;;;14.90;99.90;;;15.07;100.00;100973.34;5184696;28;20045;-48
2023/08/05 03:36:04;;;;;;;2.60;1.75;;;14.90;99.90;;;15.04;100.00;100971.50;5186611;28;20053;-48
2023/08/05 03:38:37;;;;;;;2.65;1.73;;;14.80;99.90;;;15.02;100.00;100977.59;5193264;28;20062;-49
2023/08/05 03:41:09;;;;;;;4.15;1.75;;;14.80;99.90;;;15.00;100.00;100976.69;5193324;28;20533;-48
2023/08/05 03:43:43;;;;;;;2.72;1.83;;;14.80;99.90;;;14.99;100.00;100980.16;5181674;28;20045;-49
2023/08/05 03:46:18;;;;;;;2.22;1.55;;;14.80;99.90;;;14.97;100.00;100980.13;5182017;28;20064;-47
2023/08/05 03:48:51;;;;;;;2.40;1.63;;;14.80;99.90;;;14.91;100.00;100972.13;5187653;28;20399;-46
2023/08/05 03:51:23;;;;;;;2.20;1.48;;;14.70;99.90;;;14.87;100.00;100971.19;5182696;28;20418;-47
2023/08/05 03:53:56;;;;;;;3.58;2.20;;;14.70;99.90;;;14.88;100.00;100961.59;5201123;28;20045;-48
2023/08/05 03:56:33;;;;;;;4.72;2.75;;;14.70;99.90;;;14.87;100.00;100955.47;5192837;28;21743;-49
2023/08/05 03:59:08;;;;;;;4.38;2.70;;;14.70;99.90;;;14.89;100.00;100958.09;5200644;28;20061;-47
2023/08/05 04:01:41;;;;;;;5.25;3.03;;;14.70;99.90;;;14.90;100.00;100952.88;5200929;28;20507;-47
2023/08/05 04:04:16;;;;;;;3.00;2.22;;;14.70;99.90;;;14.91;100.00;100959.88;5192503;28;20057;-48
2023/08/05 04:06:48;;;;;;;2.92;2.25;;;14.70;99.90;;;14.90;100.00;100950.25;5185391;28;20052;-48
2023/08/05 04:09:22;;;;;;;3.28;2.08;;;14.70;99.90;;;14.88;100.00;100940.59;5183907;28;20070;-47
2023/08/05 04:11:55;;;;;;;4.30;1.92;;;14.70;99.90;;;14.86;100.00;100958.91;5192429;28;20849;-48
2023/08/05 04:14:33;;;;;;;3.42;2.00;;;14.70;99.90;;;14.85;100.00;100957.13;5200466;28;20507;-47
2023/08/05 04:17:06;;;;;;;3.75;2.30;;;14.70;99.90;;;14.84;100.00;100955.38;5193608;28;20060;-48
2023/08/05 04:19:39;;;;;;;4.43;2.30;;;14.70;99.90;;;14.82;100.00;100956.22;5192005;28;20041;-48
2023/08/05 04:22:12;;;;;;;3.65;1.80;;;14.70;99.90;;;14.80;100.00;100961.44;5184857;28;20141;-48
2023/08/05 04:24:45;;;;;;;3.58;2.00;;;14.60;99.90;;;14.78;100.00;100965.75;5192985;28;20064;-48
2023/08/05 04:27:18;;;;;;;3.40;1.90;;;14.60;99.90;;;14.76;100.00;100962.22;5192563;28;20100;-47
2023/08/05 04:29:52;;;;;;;3.20;2.10;;;14.60;99.90;;;14.75;100.00;100960.44;5195276;28;20076;-48
2023/08/05 04:32:24;;;;;;;3.45;1.98;;;14.60;99.90;;;14.76;100.00;100956.97;5182256;28;20503;-47
2023/08/05 04:34:57;;;;;;;4.25;2.17;;;14.60;99.90;;;14.78;100.00;100950.00;5194348;28;20045;-47
2023/08/05 04:37:31;;;;;;;5.00;2.53;;;14.60;99.90;;;14.82;100.00;100962.34;5190138;28;20065;-47
2023/08/05 04:40:04;;;;;;;4.20;2.40;;;14.60;99.90;;;14.87;100.00;100960.69;5193451;28;20053;-47
2023/08/05 04:42:36;;;;;;;4.43;2.60;;;14.70;99.90;;;14.93;100.00;100965.16;5196136;28;20041;-47
2023/08/05 04:45:11;;;;;;;5.20;2.60;;;14.70;99.90;;;14.99;100.00;100956.53;5187564;28;20045;-47
2023/08/05 04:47:44;;;;;;;4.97;2.60;;;14.80;99.90;;;15.05;100.00;100954.03;5192108;28;20053;-47
2023/08/05 04:50:16;;;;;;;5.07;3.17;;;14.90;99.90;;;15.08;100.00;100957.59;5201223;28;20041;-47
2023/08/05 04:52:49;;;;;;;4.68;2.97;;;14.90;99.90;;;15.11;100.00;100956.75;5192742;28;20056;-49
2023/08/05 04:55:21;;;;;;;6.30;3.53;;;14.90;99.90;;;15.15;100.00;100961.22;5192271;28;20046;-48
2023/08/05 04:57:55;;;;;;;6.80;3.22;;;15.00;99.90;;;15.18;100.00;100956.03;5192021;28;20068;-50
2023/08/05 05:00:29;;;;;;;7.28;3.40;;;15.00;99.90;;;15.27;100.00;100957.97;5191929;28;20056;-48
2023/08/05 05:03:01;;;;;;;6.45;3.28;;;15.10;99.90;;;15.37;100.00;100952.88;5186089;28;20078;-48
2023/08/05 05:05:35;;;;;;;6.30;3.00;;;15.20;99.90;;;15.45;100.00;100951.28;5199982;28;20135;-47
2023/08/05 05:08:07;;;;;;;5.50;2.72;;;15.30;99.90;;;15.53;100.00;100963.66;5185118;28;20104;-47
2023/08/05 05:10:46;;;;;;;5.32;2.75;;;15.30;99.90;;;15.58;100.00;100961.97;5183327;28;20045;-47
2023/08/05 05:13:18;;;;;;;5.40;2.63;;;15.40;99.90;;;15.65;100.00;100962.16;5199543;28;20122;-47
2023/08/05 05:15:53;;;;;;;8.20;3.28;;;15.50;99.90;;;15.75;100.00;100957.94;5187656;28;20057;-47
2023/08/05 05:18:28;;;;;;;5.68;2.83;;;15.50;99.90;;;15.90;100.00;100960.78;5188974;28;20140;-48
2023/08/05 05:21:02;;;;;;;6.93;3.85;;;15.70;99.90;;;16.09;100.00;100954.06;5200671;28;20061;-48
2023/08/05 05:23:34;;;;;;;9.82;3.97;;;15.80;99.90;;;16.24;100.00;100956.94;5196339;28;20053;-49
2023/08/05 05:26:07;;;;;;;6.07;3.40;;;16.00;99.90;;;16.33;100.00;100955.31;5197856;28;20053;-49
2023/08/05 05:28:42;;;;;;;4.80;2.92;;;16.10;99.90;;;16.35;100.00;100948.31;5202846;28;20033;-47
2023/08/05 05:31:16;;;;;;;5.85;3.33;;;16.10;99.90;;;16.36;100.00;100950.06;5204210;28;20049;-48
2023/08/05 05:33:50;;;;;;;6.22;3.03;;;16.10;99.90;;;16.34;100.00;100946.53;5204551;28;20045;-47
2023/08/05 05:36:22;;;;;;;6.03;2.72;;;16.10;99.90;;;16.33;100.00;100952.69;5195547;28;20452;-48
2023/08/05 05:38:54;;;;;;;7.93;3.38;;;16.10;99.90;;;16.32;100.00;100956.16;5191154;28;20559;-47
2023/08/05 05:41:27;;;;;;;6.65;3.03;;;16.20;99.90;;;16.29;100.00;100949.97;5192811;28;20056;-47
2023/08/05 05:43:59;;;;;;;5.38;2.67;;;16.10;99.90;;;16.27;100.00;100954.34;5195974;28;20076;-48
2023/08/05 05:46:33;;;;;;;5.25;2.83;;;16.10;99.90;;;16.28;100.00;100956.13;5204405;28;20048;-48
2023/08/05 05:49:06;;;;;;;5.32;2.50;;;16.10;99.90;;;16.28;100.00;100947.34;5204100;28;20049;-47
2023/08/05 05:51:39;;;;;;;4.45;2.65;;;16.10;99.90;;;16.31;100.00;100947.41;5189745;28;20511;-46
2023/08/05 05:54:11;;;;;;;4.10;2.42;;;16.10;99.90;;;16.35;100.00;100949.19;5203410;28;20052;-48
2023/08/05 05:56:44;;;;;;;4.07;2.40;;;16.20;99.90;;;16.37;100.00;100942.22;5202335;28;20041;-48
2023/08/05 05:59:16;;;;;;;4.25;2.78;;;16.20;99.90;;;16.43;100.00;100941.41;5199802;28;20045;-50
2023/08/05 06:01:50;;;;;;;4.68;2.85;;;16.20;99.90;;;16.62;100.00;100937.25;5204158;28;20391;-47
2023/08/05 06:04:28;;;;;;;4.88;2.97;;;16.30;99.90;;;16.81;100.00;100940.16;5204556;28;20049;-51
2023/08/05 06:07:01;;;;;;;5.45;3.20;;;16.60;99.90;;;16.98;100.00;100945.63;5204072;28;20390;-48
2023/08/05 06:09:33;;;;;;;5.82;3.30;;;16.80;99.90;;;17.16;100.00;100952.84;5205341;28;20033;-48
2023/08/05 06:12:09;;;;;;;6.80;2.80;;;17.00;99.90;;;17.37;100.00;100962.72;5203997;28;20560;-48
2023/08/05 06:14:45;;;;;;;4.40;3.17;;;17.10;99.90;;;17.58;100.00;100952.38;5204070;28;20570;-48
2023/08/05 06:17:18;;;;;;;5.60;2.83;;;17.30;99.90;;;17.85;100.00;100948.22;5204018;28;20057;-51
2023/08/05 06:19:51;;;;;;;4.88;2.78;;;17.50;99.90;;;18.11;100.00;100958.94;5203773;28;20049;-50
2023/08/05 06:22:26;;;;;;;4.88;2.92;;;17.70;99.90;;;18.38;100.00;100958.22;5203975;28;20053;-50
2023/08/05 06:24:59;;;;;;;5.95;3.45;;;18.00;99.90;;;18.66;100.00;100959.28;5198725;28;20491;-51
2023/08/05 06:27:31;;;;;;;5.38;3.25;;;18.20;99.90;;;18.82;100.00;100970.81;5183314;28;20061;-51
2023/08/05 06:30:05;;;;;;;8.50;3.70;;;18.40;99.90;;;19.03;100.00;100968.22;5183278;28;20722;-51
2023/08/05 06:32:39;;;;;;;6.20;3.00;;;18.60;99.90;;;19.19;100.00;100961.25;5182013;28;20055;-51
2023/08/05 06:35:11;;;;;;;6.43;3.20;;;18.80;99.90;;;19.20;100.00;100960.34;5183323;28;20053;-52
2023/08/05 06:37:43;;;;;;;7.07;3.33;;;18.80;99.90;;;19.28;100.00;100955.06;5186232;28;20517;-50
2023/08/05 06:40:16;;;;;;;3.97;2.97;;;18.90;99.90;;;19.50;100.00;100951.59;5203221;28;20054;-51
2023/08/05 06:42:50;;;;;;;5.82;3.08;;;19.10;99.90;;;19.77;100.00;100958.69;5203280;28;20127;-50
2023/08/05 06:45:23;;;;;;;6.88;3.10;;;19.30;99.90;;;20.25;100.00;100957.72;5200359;28;20045;-49
2023/08/05 06:47:57;;;;;;;6.47;3.13;;;19.60;99.90;;;20.79;100.00;100953.16;5200400;28;20054;-51
2023/08/05 06:50:29;;;;;;;4.90;2.72;;;20.10;99.90;;;21.11;100.00;100949.47;5200863;28;20239;-50
2023/08/05 06:53:01;;;;;;;5.68;2.47;;;20.50;99.90;;;21.38;100.00;100953.72;5201822;28;20439;-50
2023/08/05 06:55:34;;;;;;;5.25;2.92;;;20.70;99.90;;;21.69;100.00;100954.38;5203458;28;20053;-50
2023/08/05 06:58:06;;;;;;;7.53;2.85;;;21.00;99.90;;;22.03;100.00;100954.06;5196556;28;20057;-50
2023/08/05 07:00:38;;;;;;;4.97;2.30;;;21.30;99.90;;;22.17;100.00;100945.13;5197576;28;20056;-49
2023/08/05 07:03:12;;;;;;;3.88;2.50;;;21.50;99.90;;;22.35;100.00;100936.06;5196312;28;20136;-50
2023/08/05 07:05:45;;;;;;;4.95;2.80;;;21.60;99.90;;;22.66;100.00;100925.06;5190023;28;20050;-50
2023/08/05 07:08:17;;;;;;;4.85;2.83;;;21.80;99.90;;;22.95;100.00;100933.59;5182557;28;20046;-50
2023/08/05 07:10:57;;;;;;;5.80;2.90;;;22.10;99.90;;;23.13;100.00;100935.09;5185034;28;20041;-47
2023/08/05 07:13:29;;;;;;;4.15;2.55;;;22.30;99.90;;;23.16;100.00;100918.22;5200106;28;20042;-51
2023/08/05 07:16:03;;;;;;;4.35;2.15;;;22.50;99.90;;;23.03;100.00;100922.84;5203040;28;20053;-49
2023/08/05 07:18:39;;;;;;;6.05;2.38;;;22.40;99.90;;;22.64;100.00;100914.47;5202509;28;20507;-50
2023/08/05 07:21:12;;;;;;;4.70;2.30;;;22.20;99.90;;;22.34;100.00;100915.72;5202509;28;20053;-48
2023/08/05 07:23:44;;;;;;;4.95;2.35;;;21.90;99.90;;;22.21;100.00;100906.13;5202740;28;20091;-49
2023/08/05 07:26:17;;;;;;;3.95;2.55;;;21.70;99.90;;;22.02;100.00;100912.50;5202713;28;20061;-50
2023/08/05 07:28:50;;;;;;;4.50;2.58;;;21.60;99.90;;;21.73;100.00;100918.09;5204230;28;20517;-49
2023/08/05 07:31:22;;;;;;;4.45;2.65;;;21.30;99.90;;;21.54;100.00;100904.13;5186407;28;20052;-48
2023/08/05 07:33:56;;;;;;;5.43;2.80;;;21.10;99.90;;;21.47;100.00;100900.63;5181888;28;20045;-48
2023/08/05 07:36:29;;;;;;;6.72;2.92;;;21.00;99.90;;;21.65;100.00;100896.97;5182255;28;20573;-48
2023/08/05 07:39:06;;;;;;;5.63;3.13;;;21.00;99.90;;;21.64;100.00;100889.88;5202279;28;20049;-51
2023/08/05 07:41:38;;;;;;;4.97;2.72;;;21.10;99.90;;;21.50;100.00;100878.50;5200937;28;20537;-50
2023/08/05 07:44:12;;;;;;;4.93;2.60;;;21.00;99.90;;;21.30;100.00;100876.91;5181511;28;20053;-50
2023/08/05 07:46:47;;;;;;;6.80;3.83;;;20.80;99.90;;;21.02;100.00;100865.59;5181633;28;20526;-49
2023/08/05 07:49:21;;;;;;;4.50;2.92;;;20.60;99.90;;;20.85;100.00;100865.69;5181559;28;20050;-49
2023/08/05 07:51:53;;;;;;;;;;;20.50;99.90;;;20.99;100.00;100856.78;5193737;28;20057;-48
2023/08/05 07:54:26;;;;;;;6.07;3.20;;;20.50;99.90;;;21.30;100.00;100855.69;5218431;28;20333;-50
2023/08/05 07:56:59;;;;;;;6.72;3.05;;;20.70;99.90;;;21.81;100.00;100853.44;5193834;28;20049;-49
2023/08/05 07:59:32;;;;;;;5.95;3.38;;;21.00;99.90;;;22.36;100.00;100857.28;5201828;28;20137;-48
2023/08/05 08:02:08;;;;;;;8.82;3.55;;;21.40;99.90;;;22.86;100.00;100855.72;5188433;28;20061;-48
2023/08/05 08:04:42;;;;;;;8.15;3.70;;;21.80;99.90;;;23.06;100.00;100860.75;5182039;28;20101;-49
2023/08/05 08:07:14;;;;;;;6.88;2.90;;;22.10;99.90;;;23.29;100.00;100848.84;5187560;28;20045;-49
2023/08/05 08:09:46;;;;;;;5.75;3.00;;;22.30;99.90;;;23.48;100.00;100833.47;5201978;28;20052;-50
2023/08/05 08:12:19;;;;;;;7.32;3.80;;;22.50;99.90;;;24.03;99.83;100827.13;5201640;28;20049;-49
2023/08/05 08:14:54;;;;;;;6.82;3.17;;;22.90;99.90;;;24.67;96.38;100826.69;5190615;28;20495;-50
2023/08/05 08:17:27;;;;;;;5.97;2.67;;;23.30;99.90;;;25.19;94.08;100836.16;5189302;28;20053;-50
2023/08/05 08:20:00;;;;;;;5.13;2.85;;;23.80;99.90;;;25.71;90.55;100833.00;5181336;28;20041;-50
2023/08/05 08:22:33;;;;;;;5.20;2.70;;;24.10;99.90;;;26.27;87.69;100833.22;5181582;28;20057;-49
2023/08/05 08:25:06;;;;;;;6.75;2.88;;;24.50;99.90;;;26.18;87.97;100829.03;5201707;28;20068;-50
2023/08/05 08:27:38;;;;;;;4.78;3.20;;;24.60;99.90;;;25.47;87.90;100834.53;5185093;28;20626;-49
2023/08/05 08:30:12;;;;;;;5.53;2.85;;;24.30;99.40;;;24.63;89.80;100821.41;5201621;28;20042;-49
2023/08/05 08:32:44;;;;;;;5.07;3.35;;;23.80;99.60;;;24.00;91.99;100813.00;5193255;28;20434;-50
2023/08/05 08:35:18;;;;;;;7.47;3.58;;;23.30;99.90;;;23.62;93.69;100819.06;5201791;28;20064;-48
2023/08/05 08:37:50;;;;;;;4.32;2.90;;;22.90;99.90;;;24.42;94.43;100813.03;5201743;28;20057;-49
2023/08/05 08:40:23;;;;;;;5.28;3.00;;;23.00;99.90;;;25.29;92.20;100809.19;5201232;28;20057;-47
2023/08/05 08:43:01;;;;;;;4.00;2.33;;;23.40;99.90;;;26.45;87.56;100811.31;5201340;28;20052;-51
2023/08/05 08:45:36;;;;;;;3.75;2.35;;;24.00;99.90;;;26.55;85.55;100801.25;5201209;28;20045;-51
2023/08/05 08:48:10;;;;;;;6.40;3.33;;;24.40;99.80;;;26.02;84.45;100802.78;5201443;28;20033;-50
2023/08/05 08:50:46;;;;;;;3.80;2.53;;;24.30;98.70;;;26.30;84.34;100808.22;5199789;28;20103;-49
2023/08/05 08:53:20;;;;;;;5.40;3.33;;;24.40;98.80;;;26.45;82.37;100800.63;5180807;28;20108;-50
2023/08/05 08:55:54;;;;;;;7.75;2.63;;;24.60;97.60;;;26.28;82.47;100799.34;5200326;28;20453;-50
2023/08/05 08:58:26;;;;;;;5.47;3.33;;;24.60;97.60;;;25.55;84.06;100795.16;5205423;28;20050;-50
2023/08/05 09:00:59;;;;;;;4.90;2.80;;;24.30;97.70;;;24.74;85.56;100783.00;5205329;28;20403;-50
2023/08/05 09:03:34;;;;;;;6.22;2.72;;;23.80;97.70;;;24.42;89.04;100787.28;5205365;28;20045;-48
2023/08/05 09:06:08;;;;;;;4.40;3.03;;;23.50;98.80;;;25.64;89.13;100784.25;5206591;28;20045;-50
2023/08/05 09:08:40;;;;;;;5.40;2.90;;;23.90;99.90;;;26.86;82.54;100784.19;5205543;28;20056;-50
2023/08/05 09:11:16;;;;;;;5.13;2.97;;;24.60;98.30;;;27.06;80.09;100776.47;5191778;28;20081;-51
2023/08/05 09:13:50;;;;;;;6.45;3.55;;;25.00;97.00;;;26.24;82.04;100763.84;5193026;28;20046;-49
2023/08/05 09:16:23;;;;;;;9.25;4.70;;;24.70;96.90;;;25.48;84.89;100761.56;5184766;28;20061;-48
2023/08/05 09:19:00;;;;;;;7.90;3.80;;;24.30;97.60;;;25.38;84.88;100770.75;5184666;28;20056;-50
2023/08/05 09:21:34;;;;;;;8.00;4.35;;;24.10;97.60;;;26.21;82.96;100754.16;5184544;28;20434;-51
2023/08/05 09:24:06;;;;;;;7.53;3.92;;;24.50;97.30;;;26.54;82.07;100746.03;5201267;28;20050;-47
2023/08/05 09:26:39;;;;;;;7.05;3.70;;;24.80;97.00;;;26.56;82.25;100757.56;5201246;28;20057;-49
2023/08/05 09:29:22;;;;;;;9.32;5.10;;;25.00;96.80;;;26.42;81.69;100758.00;5205022;28;20056;-49
2023/08/05 09:31:59;;;;;;;9.18;4.40;;;25.10;96.20;;;26.45;81.36;100746.31;5204790;28;20095;-51
2023/08/05 09:34:37;;;;;;;9.45;4.75;;;25.20;95.90;;;25.86;81.00;100735.63;5205024;28;20453;-48
2023/08/05 09:37:13;;;;;;;7.47;3.67;;;25.00;94.90;;;25.49;83.36;100741.09;5184503;28;20046;-49
2023/08/05 09:39:47;;;;;;;8.35;4.38;;;24.80;95.60;;;25.35;84.61;100745.00;5201803;28;20049;-49
2023/08/05 09:42:24;;;;;;;5.50;3.47;;;24.70;96.10;;;25.40;84.98;100742.22;5204427;28;20049;-49
2023/08/05 09:44:58;;;;;;;6.72;3.40;;;24.70;96.30;;;25.48;84.43;100740.22;5204549;28;20062;-50
2023/08/05 09:47:31;;;;;;;4.10;2.80;;;24.80;96.00;;;25.58;83.24;100730.16;5189349;28;20100;-51
2023/08/05 09:50:05;;;;;;;6.07;2.88;;;24.90;95.70;;;25.52;82.15;100723.22;5184239;28;20053;-50
2023/08/05 09:52:39;;;;;;;6.10;3.22;;;24.80;94.90;;;25.66;83.44;100717.47;5183987;28;20045;-50
2023/08/05 09:55:14;;;;;;;4.57;3.03;;;24.90;95.50;;;25.85;82.58;100712.50;5183907;28;20050;-48
2023/08/05 09:57:47;;;;;;;3.85;2.60;;;25.00;95.20;;;26.02;81.82;100714.66;5193407;28;20042;-49
2023/08/05 10:00:19;;;;;;;4.13;2.38;;;25.20;94.90;;;26.13;80.24;100713.41;5204242;28;20048;-51
2023/08/05 10:02:52;;;;;;;2.83;1.92;;;25.40;94.00;;;26.18;79.93;100711.47;5204265;28;20519;-48
2023/08/05 10:05:26;;;;;;;4.50;2.47;;;25.40;93.80;;;26.19;78.30;100699.88;5204106;28;20053;-49
2023/08/05 10:08:01;;;;;;;3.90;2.53;;;25.40;92.90;;;26.10;78.85;100697.50;5184618;28;20133;-51
2023/08/05 10:10:35;;;;;;;2.70;1.98;;;25.40;93.10;;;26.15;78.97;100698.25;5183839;28;20053;-50
2023/08/05 10:13:14;;;;;;;3.30;2.22;;;25.40;93.00;;;25.97;79.06;100682.78;5183575;28;20060;-50
2023/08/05 10:15:52;;;;;;;3.08;1.95;;;25.30;92.90;;;25.68;80.66;100687.13;5183469;28;20606;-50
2023/08/05 10:18:26;;;;;;;4.25;2.55;;;25.10;93.30;;;25.41;80.73;100680.81;5183376;28;20522;-50
2023/08/05 10:21:03;;;;;;;3.03;2.10;;;24.80;93.30;;;25.29;82.13;100672.25;5186053;28;20388;-49
2023/08/05 10:23:38;;;;;;;4.70;2.70;;;24.70;93.90;;;25.26;82.92;100672.38;5203869;28;20049;-49
2023/08/05 10:26:10;;;;;;;4.38;2.30;;;24.60;94.30;;;25.15;82.38;100661.97;5203821;28;20065;-49
2023/08/05 10:28:43;;;;;;;2.83;2.20;;;24.40;94.10;;;25.10;82.39;100664.78;5203485;28;20045;-50
2023/08/05 10:31:37;;;;;;;3.53;2.20;;;24.40;94.10;;;25.17;82.95;100657.50;5203210;28;20052;-49
2023/08/05 10:34:11;;;;;;;4.32;2.42;;;24.40;94.30;;;25.25;81.24;100651.94;5203523;28;20057;-49